createdAt,value
2022-08-17T00:01:51.982Z,64.73
2022-08-17T00:04:21.490Z,65.10
2022-08-17T00:06:53.333Z,67.08
2022-08-17T00:09:21.469Z,68.05
2022-08-17T00:12:40.764Z,66.89
2022-08-17T00:14:38.825Z,64.35
2022-08-17T00:17:07.075Z,67.64
2022-08-17T00:19:35.203Z,67.90
2022-08-17T00:22:32.177Z,68.75
2022-08-17T00:24:55.370Z,68.62
2022-08-17T00:27:23.585Z,69.60
2022-08-17T00:29:52.156Z,68.85
2022-08-17T00:33:15.526Z,68.41
2022-08-17T00:35:11.203Z,69.22
2022-08-17T00:37:41.406Z,69.58
2022-08-17T00:40:12.288Z,70.02
2022-08-17T00:42:41.005Z,69.77
2022-08-17T00:45:12.206Z,71.06
2022-08-17T00:47:40.795Z,71.26
2022-08-17T00:50:11.778Z,71.31
2022-08-17T00:52:54.811Z,72.04
2022-08-17T00:55:24.118Z,71.97
2022-08-17T00:57:56.601Z,71.29
2022-08-17T01:00:27.523Z,72.29
2022-08-17T01:03:00.244Z,72.81
2022-08-17T01:05:32.005Z,73.02
2022-08-17T01:08:02.918Z,71.80
2022-08-17T01:10:58.384Z,72.48
2022-08-17T01:13:27.745Z,73.10
2022-08-17T01:16:00.431Z,73.57
2022-08-17T01:18:29.203Z,74.24
2022-08-17T01:20:59.815Z,74.41
2022-08-17T01:23:29.874Z,73.97
2022-08-17T01:25:59.876Z,73.38
2022-08-17T01:28:33.336Z,72.08
2022-08-17T01:31:19.751Z,71.89
2022-08-17T01:33:47.879Z,71.93
2022-08-17T01:36:16.062Z,72.20
2022-08-17T01:38:45.558Z,72.02
2022-08-17T01:41:18.056Z,72.32
2022-08-17T01:43:50.880Z,73.92
2022-08-17T01:46:24.378Z,74.79
2022-08-17T01:48:52.652Z,74.62
2022-08-17T01:51:21.710Z,73.50
2022-08-17T01:53:55.490Z,74.62
2022-08-17T01:56:24.512Z,75.49
2022-08-17T01:58:53.565Z,75.02
2022-08-17T02:01:24.613Z,74.96
2022-08-17T02:03:56.304Z,74.12
2022-08-17T02:06:31.338Z,73.75
2022-08-17T02:09:03.852Z,73.53
2022-08-17T02:11:34.316Z,72.98
2022-08-17T02:14:04.096Z,73.76
2022-08-17T02:16:36.961Z,75.18
2022-08-17T02:19:08.613Z,73.63
2022-08-17T02:21:37.499Z,72.47
2022-08-17T02:24:09.432Z,73.02
2022-08-17T02:26:37.987Z,73.31
2022-08-17T02:29:07.286Z,74.46
2022-08-17T02:31:35.651Z,73.80
2022-08-17T02:34:05.339Z,74.60
2022-08-17T02:36:35.292Z,74.26
2022-08-17T02:39:04.988Z,74.06
2022-08-17T02:41:34.867Z,74.03
2022-08-17T02:44:03.020Z,73.75
2022-08-17T02:46:32.334Z,73.79
2022-08-17T02:49:00.473Z,74.09
2022-08-17T02:51:28.898Z,74.16
2022-08-17T02:54:38.930Z,74.10
2022-08-17T02:56:46.983Z,73.55
2022-08-17T02:59:15.105Z,73.53
2022-08-17T03:01:43.271Z,73.06
2022-08-17T03:04:11.785Z,73.21
2022-08-17T03:06:39.886Z,75.35
2022-08-17T03:09:08.153Z,77.32
2022-08-17T03:11:36.405Z,76.97
2022-08-17T03:14:05.937Z,77.66
2022-08-17T03:16:34.055Z,77.17
2022-08-17T03:19:02.910Z,76.29
2022-08-17T03:21:31.064Z,75.34
2022-08-17T03:23:59.264Z,75.36
2022-08-17T03:26:29.637Z,75.65
2022-08-17T03:28:58.154Z,76.23
2022-08-17T03:31:27.698Z,76.49
2022-08-17T03:33:56.452Z,76.49
2022-08-17T03:36:24.844Z,76.30
2022-08-17T03:38:53.131Z,77.20
2022-08-17T03:41:23.021Z,78.03
2022-08-17T03:43:51.340Z,78.70
2022-08-17T03:46:37.084Z,80.01
2022-08-17T03:49:25.854Z,80.37
2022-08-17T03:52:12.097Z,80.43
2022-08-17T03:54:58.245Z,79.68
2022-08-17T03:57:26.942Z,79.64
2022-08-17T03:59:56.160Z,79.23
2022-08-17T04:02:29.418Z,79.36
2022-08-17T04:05:00.037Z,79.18
2022-08-17T04:07:30.855Z,78.79
2022-08-17T04:09:59.573Z,78.41
2022-08-17T04:12:30.869Z,79.47
2022-08-17T04:14:59.443Z,80.13
2022-08-17T04:17:29.866Z,80.29
2022-08-17T04:19:59.326Z,80.87
2022-08-17T04:22:33.203Z,79.40
2022-08-17T04:25:05.342Z,78.02
2022-08-17T04:27:33.645Z,77.85
2022-08-17T04:30:01.906Z,77.59
2022-08-17T04:33:00.439Z,77.47
2022-08-17T04:35:22.914Z,76.96
2022-08-17T04:37:51.464Z,76.20
2022-08-17T04:40:52.770Z,76.28
2022-08-17T04:43:22.250Z,76.94
2022-08-17T04:45:56.137Z,77.82
2022-08-17T04:48:34.764Z,76.76
2022-08-17T04:51:09.863Z,77.00
2022-08-17T04:53:39.556Z,76.43
2022-08-17T04:56:15.923Z,76.75
2022-08-17T04:58:45.633Z,76.71
2022-08-17T05:01:14.036Z,76.45
2022-08-17T05:03:42.865Z,75.68
2022-08-17T05:06:12.514Z,74.84
2022-08-17T05:08:40.690Z,75.22
2022-08-17T05:11:09.310Z,75.07
2022-08-17T05:13:37.483Z,74.60
2022-08-17T05:16:06.660Z,73.92
2022-08-17T05:18:34.879Z,73.16
2022-08-17T05:21:03.826Z,72.39
2022-08-17T05:23:42.712Z,71.84
2022-08-17T05:26:23.148Z,71.70
2022-08-17T05:28:57.194Z,71.47
2022-08-17T05:31:28.081Z,71.70
2022-08-17T05:33:56.230Z,71.10
2022-08-17T05:36:41.743Z,70.63
2022-08-17T05:39:16.858Z,69.76
2022-08-17T05:41:47.448Z,69.74
2022-08-17T05:44:15.825Z,69.75
2022-08-17T05:46:49.946Z,69.44
2022-08-17T05:49:20.500Z,68.73
2022-08-17T05:52:24.673Z,68.64
2022-08-17T05:55:11.401Z,67.91
2022-08-17T05:58:01.059Z,67.60
2022-08-17T06:00:42.031Z,66.92
2022-08-17T06:03:47.582Z,65.98
2022-08-17T06:06:31.959Z,65.68
2022-08-17T06:09:22.932Z,63.61
2022-08-17T06:12:01.237Z,62.92
2022-08-17T06:14:47.248Z,63.31
2022-08-17T06:17:20.078Z,63.47
2022-08-17T06:19:54.609Z,63.68
2022-08-17T06:22:25.746Z,63.58
2022-08-17T06:24:59.037Z,63.08
2022-08-17T06:27:35.694Z,63.18
2022-08-17T06:30:10.034Z,63.39
2022-08-17T06:32:40.616Z,62.60
2022-08-17T06:35:12.113Z,62.16
2022-08-17T06:37:59.516Z,61.12
2022-08-17T06:40:52.390Z,60.63
2022-08-17T06:43:48.003Z,60.16
2022-08-17T06:46:23.054Z,58.84
2022-08-17T06:49:08.028Z,57.49
2022-08-17T06:51:41.847Z,57.08
2022-08-17T06:54:15.493Z,55.93
2022-08-17T06:56:54.171Z,55.44
2022-08-17T06:59:53.177Z,55.06
2022-08-17T07:02:29.390Z,54.58
2022-08-17T07:05:14.326Z,54.40
2022-08-17T07:08:02.764Z,52.88
2022-08-17T07:10:36.443Z,51.82
2022-08-17T07:13:18.203Z,51.21
2022-08-17T07:15:54.017Z,50.67
2022-08-17T07:18:27.906Z,51.24
2022-08-17T07:21:07.652Z,51.76
2022-08-17T07:23:48.734Z,51.93
2022-08-17T07:26:16.980Z,51.70
2022-08-17T07:28:45.875Z,51.07
2022-08-17T07:31:17.303Z,51.01
2022-08-17T07:34:02.270Z,51.52
2022-08-17T07:36:33.913Z,50.95
2022-08-17T07:39:03.429Z,51.34
2022-08-17T07:41:53.053Z,50.83
2022-08-17T07:44:26.227Z,50.03
2022-08-17T07:47:14.434Z,49.92
2022-08-17T07:49:46.115Z,50.43
2022-08-17T07:52:50.752Z,49.85
2022-08-17T07:55:34.918Z,50.29
2022-08-17T07:58:03.687Z,49.37
2022-08-17T08:00:33.663Z,48.63
2022-08-17T08:03:13.369Z,48.41
2022-08-17T08:05:51.108Z,48.55
2022-08-17T08:08:28.227Z,48.72
2022-08-17T08:11:04.273Z,48.39
2022-08-17T08:13:33.635Z,47.60
2022-08-17T08:16:24.426Z,46.91
2022-08-17T08:18:57.753Z,46.65
2022-08-17T08:21:37.508Z,46.15
2022-08-17T08:24:25.885Z,46.05
2022-08-17T08:27:11.673Z,46.01
2022-08-17T08:29:49.576Z,46.29
2022-08-17T08:32:28.073Z,45.98
2022-08-17T08:35:04.904Z,45.50
2022-08-17T08:37:44.316Z,45.25
2022-08-17T08:40:34.592Z,44.74
2022-08-17T08:43:16.541Z,44.64
2022-08-17T08:45:52.723Z,44.49
2022-08-17T08:48:53.408Z,44.53
2022-08-17T08:51:39.221Z,43.69
2022-08-17T08:54:26.977Z,43.76
2022-08-17T08:57:28.046Z,43.81
2022-08-17T09:00:08.680Z,43.86
2022-08-17T09:03:28.073Z,43.32
2022-08-17T09:06:39.158Z,43.34
2022-08-17T09:09:20.382Z,43.09
2022-08-17T09:12:02.963Z,42.33
2022-08-17T09:14:45.000Z,42.09
2022-08-17T09:17:20.328Z,41.54
2022-08-17T09:19:50.816Z,41.57
2022-08-17T09:22:31.633Z,41.46
2022-08-17T09:25:06.916Z,40.28
2022-08-17T09:27:51.028Z,40.84
2022-08-17T09:30:19.834Z,40.20
2022-08-17T09:32:52.170Z,39.88
2022-08-17T09:35:25.179Z,40.08
2022-08-17T09:38:16.076Z,39.35
2022-08-17T09:40:51.690Z,38.89
2022-08-17T09:43:28.895Z,38.57
2022-08-17T09:46:01.962Z,38.01
2022-08-17T09:48:33.258Z,37.94
2022-08-17T09:51:07.068Z,37.70
2022-08-17T09:53:38.654Z,37.46
2022-08-17T09:56:27.215Z,37.73
2022-08-17T09:59:11.265Z,37.55
2022-08-17T10:01:44.110Z,36.97
2022-08-17T10:04:33.838Z,37.02
2022-08-17T10:07:11.219Z,36.93
2022-08-17T10:09:55.728Z,37.27
2022-08-17T10:12:35.253Z,36.78
2022-08-17T10:15:17.327Z,36.31
2022-08-17T10:17:56.465Z,36.23
2022-08-17T10:20:30.652Z,36.38
2022-08-17T10:23:19.997Z,35.29
2022-08-17T10:26:10.368Z,35.17
2022-08-17T10:28:44.046Z,34.92
2022-08-17T10:31:34.161Z,32.62
2022-08-17T10:34:36.160Z,31.52
2022-08-17T10:37:26.297Z,30.97
2022-08-17T10:40:08.711Z,30.86
2022-08-17T10:42:48.926Z,30.60
2022-08-17T10:45:26.337Z,30.22
2022-08-17T10:48:04.711Z,29.94
2022-08-17T10:50:50.299Z,30.37
2022-08-17T10:53:56.271Z,30.18
2022-08-17T10:56:39.486Z,29.18
2022-08-17T10:59:08.851Z,29.54
2022-08-17T11:02:05.400Z,28.90
2022-08-17T11:04:49.954Z,29.00
2022-08-17T11:07:27.963Z,28.51
2022-08-17T11:10:19.921Z,27.98
2022-08-17T11:12:55.508Z,27.88
2022-08-17T11:15:43.098Z,27.69
2022-08-17T11:18:36.566Z,27.59
2022-08-17T11:21:23.149Z,27.17
2022-08-17T11:24:16.612Z,27.36
2022-08-17T11:26:48.859Z,27.68
2022-08-17T11:29:24.812Z,27.14
2022-08-17T11:32:06.107Z,26.80
2022-08-17T11:34:35.151Z,27.13
2022-08-17T11:37:37.327Z,27.99
2022-08-17T11:40:32.372Z,29.34
2022-08-17T11:43:33.143Z,29.11
2022-08-17T11:46:14.367Z,28.98
2022-08-17T11:49:08.225Z,29.39
2022-08-17T11:52:11.718Z,29.78
2022-08-17T11:54:45.276Z,30.07
2022-08-17T11:58:01.008Z,30.28
2022-08-17T12:00:51.453Z,30.23
2022-08-17T12:03:53.996Z,30.14
2022-08-17T12:06:35.929Z,29.16
2022-08-17T12:09:12.079Z,27.87
2022-08-17T12:12:11.202Z,27.36
2022-08-17T12:15:05.975Z,27.59
2022-08-17T12:17:41.550Z,27.77
2022-08-17T12:20:16.374Z,28.29
2022-08-17T12:22:56.586Z,28.13
2022-08-17T12:25:31.464Z,27.91
2022-08-17T12:28:06.139Z,27.19
2022-08-17T12:30:37.008Z,25.99
2022-08-17T12:33:12.584Z,25.91
2022-08-17T12:35:43.304Z,25.00
2022-08-17T12:38:32.081Z,24.34
2022-08-17T12:41:24.538Z,24.76
2022-08-17T12:44:01.648Z,24.81
2022-08-17T12:46:33.704Z,24.76
2022-08-17T12:49:16.471Z,24.30
2022-08-17T12:51:47.976Z,23.98
2022-08-17T12:54:26.377Z,24.47
2022-08-17T12:56:55.633Z,24.65
2022-08-17T12:59:30.087Z,24.66
2022-08-17T13:01:59.182Z,25.11
2022-08-17T13:04:29.534Z,24.98
2022-08-17T13:06:59.974Z,24.30
2022-08-17T13:09:35.389Z,23.91
2022-08-17T13:12:09.003Z,23.81
2022-08-17T13:14:37.230Z,23.46
2022-08-17T13:17:11.055Z,24.11
2022-08-17T13:19:49.543Z,23.72
2022-08-17T13:22:24.010Z,23.78
2022-08-17T13:24:55.438Z,22.65
2022-08-17T13:27:25.990Z,21.90
2022-08-17T13:29:57.588Z,21.72
2022-08-17T13:32:43.009Z,21.25
2022-08-17T13:35:39.604Z,21.33
2022-08-17T13:38:12.845Z,20.70
2022-08-17T13:40:43.121Z,20.30
2022-08-17T13:43:12.168Z,20.51
2022-08-17T13:46:09.259Z,20.12
2022-08-17T13:48:37.652Z,20.24
2022-08-17T13:51:31.757Z,20.00
2022-08-17T13:54:06.529Z,19.90
2022-08-17T13:56:40.991Z,19.31
2022-08-17T13:59:12.540Z,19.32
2022-08-17T14:01:43.192Z,19.58
2022-08-17T14:04:15.255Z,20.38
2022-08-17T14:06:52.217Z,20.08
2022-08-17T14:09:25.604Z,19.52
2022-08-17T14:11:55.160Z,19.14
2022-08-17T14:14:24.241Z,19.73
2022-08-17T14:16:52.966Z,19.96
2022-08-17T14:19:22.320Z,19.46
2022-08-17T14:21:51.317Z,19.04
2022-08-17T14:24:26.602Z,19.00
2022-08-17T14:26:55.961Z,18.85
2022-08-17T14:29:25.970Z,19.08
2022-08-17T14:31:54.786Z,19.23
2022-08-17T14:34:23.791Z,18.34
2022-08-17T14:36:52.213Z,18.21
2022-08-17T14:39:21.357Z,17.75
2022-08-17T14:41:53.038Z,17.72
2022-08-17T14:44:21.152Z,17.63
2022-08-17T14:46:50.516Z,17.62
2022-08-17T14:49:20.725Z,17.66
2022-08-17T14:51:48.979Z,17.62
2022-08-17T14:54:33.693Z,17.43
2022-08-17T14:57:23.664Z,17.47
2022-08-17T14:59:55.916Z,17.25
2022-08-17T15:02:29.176Z,17.23
2022-08-17T15:05:00.567Z,16.97
2022-08-17T15:07:30.892Z,17.20
2022-08-17T15:10:00.903Z,17.66
2022-08-17T15:12:33.600Z,17.43
2022-08-17T15:15:04.866Z,17.42
2022-08-17T15:17:44.375Z,17.65
2022-08-17T15:20:15.402Z,17.63
2022-08-17T15:22:45.594Z,17.48
2022-08-17T15:25:14.696Z,17.15
2022-08-17T15:27:44.233Z,17.43
2022-08-17T15:30:13.336Z,17.31
2022-08-17T15:32:51.196Z,16.65
2022-08-17T15:35:27.908Z,16.55
2022-08-17T15:37:58.387Z,16.71
2022-08-17T15:40:26.783Z,16.51
2022-08-17T15:42:57.892Z,15.78
2022-08-17T15:45:28.363Z,16.45
2022-08-17T15:47:56.511Z,16.53
2022-08-17T15:50:24.724Z,16.55
2022-08-17T15:52:58.370Z,16.32
2022-08-17T15:55:28.945Z,15.99
2022-08-17T15:57:58.976Z,15.46
2022-08-17T16:00:28.537Z,15.56
2022-08-17T16:03:47.144Z,15.36
2022-08-17T16:05:50.254Z,15.88
2022-08-17T16:08:21.251Z,16.14
2022-08-17T16:10:50.072Z,16.48
2022-08-17T16:13:20.481Z,16.04
2022-08-17T16:15:57.252Z,16.12
2022-08-17T16:18:31.056Z,17.92
2022-08-17T16:21:20.587Z,18.93
2022-08-17T16:23:49.257Z,19.61
2022-08-17T16:26:18.068Z,20.64
2022-08-17T16:28:48.243Z,20.61
2022-08-17T16:31:16.672Z,20.71
2022-08-17T16:33:58.429Z,20.71
2022-08-17T16:36:34.108Z,21.51
2022-08-17T16:39:02.506Z,20.84
2022-08-17T16:41:45.568Z,20.74
2022-08-17T16:44:16.679Z,21.06
2022-08-17T16:46:46.193Z,21.21
2022-08-17T16:49:35.169Z,21.18
2022-08-17T16:52:04.319Z,21.79
2022-08-17T16:54:32.667Z,21.84
2022-08-17T16:57:00.788Z,21.71
2022-08-17T16:59:39.652Z,21.86
2022-08-17T17:02:12.198Z,22.17
2022-08-17T17:04:47.518Z,22.11
2022-08-17T17:07:44.869Z,22.71
2022-08-17T17:10:16.369Z,22.95
2022-08-17T17:13:01.350Z,23.27
2022-08-17T17:15:47.443Z,23.10
2022-08-17T17:18:17.146Z,23.53
2022-08-17T17:20:50.821Z,23.66
2022-08-17T17:23:48.396Z,23.33
2022-08-17T17:26:28.965Z,23.53
2022-08-17T17:29:06.325Z,23.84
2022-08-17T17:31:42.374Z,25.57
2022-08-17T17:34:15.947Z,25.20
2022-08-17T17:36:48.689Z,24.71
2022-08-17T17:39:20.107Z,26.18
2022-08-17T17:41:54.217Z,26.45
2022-08-17T17:44:28.423Z,25.15
2022-08-17T17:47:00.465Z,26.58
2022-08-17T17:49:31.994Z,27.32
2022-08-17T17:52:14.231Z,26.79
2022-08-17T17:54:59.743Z,27.40
2022-08-17T17:57:40.536Z,27.61
2022-08-17T18:00:14.972Z,27.56
2022-08-17T18:03:02.499Z,28.28
2022-08-17T18:05:48.755Z,28.60
2022-08-17T18:08:34.998Z,28.58
2022-08-17T18:11:14.277Z,28.79
2022-08-17T18:14:06.782Z,30.35
2022-08-17T18:16:35.923Z,30.49
2022-08-17T18:19:07.180Z,30.81
2022-08-17T18:21:39.477Z,30.58
2022-08-17T18:24:10.556Z,31.40
2022-08-17T18:26:57.747Z,31.34
2022-08-17T18:29:32.457Z,31.79
2022-08-17T18:32:40.033Z,31.94
2022-08-17T18:35:35.226Z,31.33
2022-08-17T18:38:22.513Z,31.44
2022-08-17T18:41:00.765Z,31.60
2022-08-17T18:43:43.789Z,31.52
2022-08-17T18:46:28.876Z,30.71
2022-08-17T18:49:00.088Z,29.58
2022-08-17T18:51:40.975Z,28.98
2022-08-17T18:54:20.565Z,29.59
2022-08-17T18:56:56.717Z,30.19
2022-08-17T18:59:29.514Z,30.21
2022-08-17T19:02:34.547Z,30.91
2022-08-17T19:05:13.381Z,30.58
2022-08-17T19:07:45.251Z,30.61
2022-08-17T19:10:22.423Z,30.63
2022-08-17T19:13:00.758Z,30.82
2022-08-17T19:15:35.811Z,31.41
2022-08-17T19:18:15.140Z,30.86
2022-08-17T19:20:48.774Z,32.01
2022-08-17T19:23:25.210Z,32.50
2022-08-17T19:25:58.433Z,33.03
2022-08-17T19:28:28.976Z,34.57
2022-08-17T19:30:59.460Z,33.94
2022-08-17T19:33:28.175Z,32.91
2022-08-17T19:36:06.982Z,34.29
2022-08-17T19:38:43.421Z,34.80
2022-08-17T19:41:20.421Z,34.89
2022-08-17T19:44:07.809Z,35.36
2022-08-17T19:46:49.909Z,35.85
2022-08-17T19:49:40.525Z,35.00
2022-08-17T19:52:36.319Z,34.39
2022-08-17T19:55:19.792Z,33.11
2022-08-17T19:58:00.786Z,32.98
2022-08-17T20:00:31.242Z,34.67
2022-08-17T20:03:06.388Z,34.39
2022-08-17T20:06:08.677Z,36.44
2022-08-17T20:08:30.529Z,36.46
2022-08-17T20:11:04.332Z,37.40
2022-08-17T20:13:37.024Z,36.97
2022-08-17T20:16:06.218Z,37.43
2022-08-17T20:18:47.626Z,37.48
2022-08-17T20:21:20.660Z,38.40
2022-08-17T20:23:56.502Z,38.47
2022-08-17T20:26:35.254Z,39.39
2022-08-17T20:29:10.796Z,39.60
2022-08-17T20:31:49.049Z,40.15
2022-08-17T20:34:36.785Z,40.35
2022-08-17T20:37:09.634Z,40.30
2022-08-17T20:39:43.181Z,40.90
2022-08-17T20:42:32.397Z,39.91
2022-08-17T20:45:05.385Z,39.25
2022-08-17T20:47:36.870Z,38.75
2022-08-17T20:50:08.090Z,40.79
2022-08-17T20:52:46.855Z,40.93
2022-08-17T20:55:53.291Z,40.45
2022-08-17T20:58:47.740Z,41.17
2022-08-17T21:01:24.460Z,42.18
2022-08-17T21:03:54.239Z,42.49
2022-08-17T21:06:26.075Z,42.66
2022-08-17T21:09:19.205Z,42.67
2022-08-17T21:12:04.647Z,41.81
2022-08-17T21:14:58.163Z,41.82
2022-08-17T21:17:49.886Z,42.01
2022-08-17T21:20:33.906Z,42.08
2022-08-17T21:23:23.805Z,42.13
2022-08-17T21:26:05.558Z,41.89
2022-08-17T21:28:59.872Z,42.82
2022-08-17T21:31:34.509Z,44.00
2022-08-17T21:34:27.169Z,44.96
2022-08-17T21:36:56.896Z,45.23
2022-08-17T21:39:33.240Z,46.17
2022-08-17T21:42:01.940Z,45.60
2022-08-17T21:44:35.046Z,45.47
2022-08-17T21:47:23.629Z,44.76
2022-08-17T21:49:52.286Z,44.59
2022-08-17T21:52:23.841Z,44.11
2022-08-17T21:54:57.093Z,44.36
2022-08-17T21:57:28.297Z,44.78
2022-08-17T21:59:59.748Z,44.71
2022-08-17T22:02:33.499Z,44.85
2022-08-17T22:05:03.562Z,44.39
2022-08-17T22:07:38.159Z,45.14
2022-08-17T22:10:08.087Z,46.13
2022-08-17T22:12:36.560Z,46.31
2022-08-17T22:15:07.523Z,45.95
2022-08-17T22:17:41.212Z,45.51
2022-08-17T22:20:14.580Z,45.60
2022-08-17T22:23:25.326Z,46.87
2022-08-17T22:26:02.269Z,47.13
2022-08-17T22:28:38.968Z,46.85
2022-08-17T22:31:08.628Z,46.46
2022-08-17T22:33:41.972Z,46.44
2022-08-17T22:36:24.642Z,46.19
2022-08-17T22:38:55.114Z,45.90
2022-08-17T22:41:37.309Z,46.02
2022-08-17T22:44:16.421Z,44.98
2022-08-17T22:47:01.943Z,44.42
2022-08-17T22:49:36.880Z,45.29
2022-08-17T22:52:31.558Z,45.54
2022-08-17T22:55:30.668Z,46.01
2022-08-17T22:58:16.495Z,46.57
2022-08-17T23:00:47.711Z,47.22
2022-08-17T23:03:19.405Z,46.67
2022-08-17T23:06:03.783Z,47.38
2022-08-17T23:08:34.596Z,47.09
2022-08-17T23:11:02.992Z,47.07
2022-08-17T23:13:33.509Z,47.91
2022-08-17T23:16:02.459Z,48.76
2022-08-17T23:18:30.592Z,48.46
2022-08-17T23:21:01.301Z,48.74
2022-08-17T23:23:31.373Z,48.32
2022-08-17T23:25:59.482Z,47.55
2022-08-17T23:28:28.546Z,47.72
2022-08-17T23:30:56.688Z,47.65
2022-08-17T23:33:30.992Z,48.20
2022-08-17T23:36:00.522Z,47.82
2022-08-17T23:38:29.274Z,48.01
2022-08-17T23:41:00.032Z,48.40
2022-08-17T23:43:29.840Z,48.20
2022-08-17T23:45:59.794Z,48.19
2022-08-17T23:48:36.636Z,48.16
2022-08-17T23:51:13.640Z,48.15
2022-08-17T23:53:46.402Z,48.23
2022-08-17T23:56:15.600Z,48.20
2022-08-17T23:58:45.122Z,48.57
